Time;durP1;ratioP1;P1;durP2;ratioP2;P2;SDS_P1;SDS_P2;PMS_P1;PMS_P2;Temp;Humidity;BMP_temperature;BMP_pressure;BME280_temperature;BME280_humidity;BME280_pressure;Samples;Min_cycle;Max_cycle;Signal;HPM_P1;HPM_P2
2021/11/24 00:00:35;;;;;;;38.73;22.42;;;;;;;0.80;81.33;100058.47;1644059;87;21068;-61
2021/11/24 00:03:02;;;;;;;43.65;22.60;;;;;;;0.80;81.34;100062.53;1644399;87;21055;-63
2021/11/24 00:05:28;;;;;;;39.63;21.65;;;;;;;0.80;81.30;100070.67;1644417;87;21019;-63
2021/11/24 00:07:55;;;;;;;42.08;24.67;;;;;;;0.80;81.23;100069.88;1644223;87;21156;-61
2021/11/24 00:10:21;;;;;;;46.65;25.95;;;;;;;0.81;81.38;100070.16;1644459;87;21551;-62
2021/11/24 00:12:49;;;;;;;46.58;26.27;;;;;;;0.85;81.45;100078.11;1623561;87;21103;-62
2021/11/24 00:15:15;;;;;;;48.33;28.27;;;;;;;0.85;81.43;100076.76;1644549;87;21125;-63
2021/11/24 00:17:42;;;;;;;50.28;29.18;;;;;;;0.84;81.31;100079.16;1644325;87;21019;-65
2021/11/24 00:20:09;;;;;;;51.25;29.67;;;;;;;0.82;81.32;100078.60;1644384;87;21227;-64
2021/11/24 00:22:36;;;;;;;54.23;29.37;;;;;;;0.81;81.35;100076.94;1644027;87;21705;-63
2021/11/24 00:25:03;;;;;;;47.83;26.70;;;;;;;0.80;81.29;100083.44;1623606;87;21007;-64
2021/11/24 00:27:30;;;;;;;45.73;25.60;;;;;;;0.77;81.35;100079.86;1644324;84;21516;-64
2021/11/24 00:29:56;;;;;;;41.30;26.05;;;;;;;0.76;81.42;100075.47;1644343;87;21038;-64
2021/11/24 00:32:24;;;;;;;41.00;23.87;;;;;;;0.77;81.56;100079.30;1644457;87;21158;-61
2021/11/24 00:34:50;;;;;;;40.65;22.48;;;;;;;0.79;81.64;100079.89;1645230;86;21094;-63
2021/11/24 00:37:17;;;;;;;41.02;23.67;;;;;;;0.79;81.69;100080.41;1623409;87;21095;-64
2021/11/24 00:39:43;;;;;;;42.33;23.50;;;;;;;0.78;81.64;100080.97;1644592;87;21062;-65
2021/11/24 00:42:10;;;;;;;44.08;24.37;;;;;;;0.77;81.65;100083.38;1644397;87;21578;-62
2021/11/24 00:44:36;;;;;;;40.23;23.42;;;;;;;0.76;81.68;100083.61;1644568;87;21162;-60
2021/11/24 00:47:03;;;;;;;40.83;22.52;;;;;;;0.74;81.56;100083.86;1644152;87;21058;-65
2021/11/24 00:49:31;;;;;;;41.37;24.72;;;;;;;0.69;81.51;100081.88;1623570;87;21062;-64
2021/11/24 00:51:58;;;;;;;45.40;23.18;;;;;;;0.69;81.76;100088.66;1644412;87;21011;-62
2021/11/24 00:54:24;;;;;;;42.35;25.08;;;;;;;0.70;81.95;100093.00;1623750;87;21024;-64
2021/11/24 00:56:51;;;;;;;39.33;23.77;;;;;;;0.75;82.22;100089.56;1645649;86;21047;-64
2021/11/24 00:59:18;;;;;;;42.17;23.83;;;;;;;0.81;82.36;100091.33;1644248;87;21539;-65
2021/11/24 01:01:45;;;;;;;41.35;25.48;;;;;;;0.85;82.41;100095.20;1645795;86;21007;-63
2021/11/24 01:04:11;;;;;;;45.55;25.97;;;;;;;0.89;82.38;100097.45;1644656;87;21011;-63
2021/11/24 01:06:38;;;;;;;43.33;25.20;;;;;;;0.89;82.26;100094.74;1644302;87;21118;-64
2021/11/24 01:09:08;;;;;;;46.40;26.02;;;;;;;0.90;82.28;100093.14;1644392;87;21801;-63
2021/11/24 01:11:35;;;;;;;44.88;24.27;;;;;;;0.90;82.18;100090.42;1644341;87;21508;-63
2021/11/24 01:14:02;;;;;;;48.17;26.97;;;;;;;0.91;82.20;100094.78;1623490;87;21130;-64
2021/11/24 01:16:28;;;;;;;47.85;24.25;;;;;;;0.92;82.17;100099.13;1644474;87;21021;-63
2021/11/24 01:18:55;;;;;;;47.85;28.07;;;;;;;0.93;82.19;100103.51;1644428;87;21012;-65
2021/11/24 01:21:21;;;;;;;40.08;23.20;;;;;;;0.93;82.20;100107.58;1644142;87;21786;-66
2021/11/24 01:23:48;;;;;;;44.38;24.95;;;;;;;0.94;82.22;100108.38;1644495;87;21016;-65
2021/11/24 01:26:14;;;;;;;47.73;24.15;;;;;;;0.92;82.18;100105.91;1651678;84;21507;-64
2021/11/24 01:28:41;;;;;;;45.85;24.90;;;;;;;0.90;82.28;100098.57;1636369;86;21013;-63
2021/11/24 01:31:07;;;;;;;43.28;24.57;;;;;;;0.81;82.15;100098.12;1638578;86;21041;-65
2021/11/24 01:33:34;;;;;;;44.88;24.47;;;;;;;0.77;82.36;100098.84;1668643;86;21111;-64
2021/11/24 01:36:01;;;;;;;43.15;22.58;;;;;;;0.73;82.36;100097.95;1640458;86;21146;-64
2021/11/24 01:38:27;;;;;;;38.10;22.25;;;;;;;0.72;82.58;100104.45;1641684;86;21495;-64
2021/11/24 01:40:54;;;;;;;45.00;23.90;;;;;;;0.73;82.79;100107.44;1664239;84;21033;-64
2021/11/24 01:43:20;;;;;;;48.40;24.32;;;;;;;0.77;82.85;100107.79;1640980;87;21096;-62
2021/11/24 01:45:47;;;;;;;44.70;24.25;;;;;;;0.81;82.97;100104.07;1665173;86;21165;-63
2021/11/24 01:48:14;;;;;;;41.77;24.43;;;;;;;0.83;83.04;100104.14;1651465;86;21050;-64
2021/11/24 01:50:40;;;;;;;46.90;24.80;;;;;;;0.85;83.01;100103.34;1651695;86;21514;-64
2021/11/24 01:53:07;;;;;;;39.45;23.20;;;;;;;0.87;82.86;100111.23;1648028;86;21034;-64
2021/11/24 01:55:33;;;;;;;41.98;22.62;;;;;;;0.85;82.90;100109.32;1641479;86;21108;-62
2021/11/24 01:58:00;;;;;;;39.95;22.67;;;;;;;0.85;83.01;100110.12;1636583;87;21221;-62
2021/11/24 02:00:30;;;;;;;41.95;22.27;;;;;;;0.85;83.02;100103.34;1664957;86;21522;-63
2021/11/24 02:02:58;;;;;;;43.80;23.42;;;;;;;0.84;82.92;100107.66;1651481;86;21074;-65
2021/11/24 02:05:24;;;;;;;43.02;23.85;;;;;;;0.81;82.82;100110.33;1668676;86;21063;-62
2021/11/24 02:07:51;;;;;;;44.00;23.65;;;;;;;0.77;83.00;100115.93;1636211;87;21048;-62
2021/11/24 02:10:21;;;;;;;42.03;23.75;;;;;;;0.81;83.26;100120.34;1668888;86;21841;-65
2021/11/24 02:12:48;;;;;;;42.45;22.42;;;;;;;0.83;83.41;100112.80;1637725;86;21014;-63
2021/11/24 02:15:15;;;;;;;42.05;22.62;;;;;;;0.87;83.46;100112.59;1640451;86;21014;-64
2021/11/24 02:17:46;;;;;;;42.80;24.27;;;;;;;0.91;83.55;100115.66;1668722;86;21125;-64
2021/11/24 02:20:17;;;;;;;40.48;23.52;;;;;;;0.95;83.60;100114.95;1668662;86;21010;-61
2021/11/24 02:22:44;;;;;;;43.28;22.50;;;;;;;0.99;83.64;100115.27;1640239;87;21827;-64
2021/11/24 02:25:11;;;;;;;38.98;22.58;;;;;;;1.02;83.57;100113.98;1668711;86;21542;-62
2021/11/24 02:27:39;;;;;;;44.33;23.55;;;;;;;1.03;83.47;100116.97;1668726;86;21078;-64
2021/11/24 02:30:07;;;;;;;46.65;23.30;;;;;;;1.03;83.32;100119.69;1639778;87;21068;-62
2021/11/24 02:32:34;;;;;;;47.80;26.17;;;;;;;1.01;83.27;100115.86;1668853;86;21167;-61
2021/11/24 02:35:00;;;;;;;58.23;27.52;;;;;;;1.02;83.38;100115.34;1668745;86;21159;-61
2021/11/24 02:37:28;;;;;;;54.13;26.80;;;;;;;1.03;83.39;100111.02;1640135;87;21038;-63
2021/11/24 02:39:55;;;;;;;55.48;26.37;;;;;;;1.05;83.38;100117.56;1668783;86;21047;-64
2021/11/24 02:42:22;;;;;;;50.83;27.70;;;;;;;1.07;83.43;100116.80;1668411;86;21498;-64
2021/11/24 02:44:49;;;;;;;48.78;25.32;;;;;;;1.08;83.31;100118.44;1640336;87;21084;-65
2021/11/24 02:47:19;;;;;;;49.50;25.77;;;;;;;1.06;83.21;100125.47;1641594;86;21515;-64
2021/11/24 02:49:48;;;;;;;43.42;24.98;;;;;;;1.04;83.15;100118.64;1668872;86;21101;-62
2021/11/24 02:52:15;;;;;;;47.08;24.20;;;;;;;0.99;82.96;100118.54;1640761;87;21006;-64
2021/11/24 02:54:52;;;;;;;56.90;24.52;;;;;;;0.96;83.01;100127.97;1668458;86;21058;-63
2021/11/24 02:57:18;;;;;;;48.15;24.07;;;;;;;0.93;82.93;100141.51;1666381;85;21058;-62
2021/11/24 02:59:46;;;;;;;64.58;26.15;;;;;;;0.89;83.02;100145.75;1636558;86;21051;-62
2021/11/24 03:02:12;;;;;;;67.00;25.90;;;;;;;0.88;83.19;100141.40;1661148;86;21062;-63
2021/11/24 03:04:40;;;;;;;51.13;24.87;;;;;;;0.88;83.30;100141.40;1668402;86;21171;-62
2021/11/24 03:07:06;;;;;;;49.53;25.00;;;;;;;0.89;83.47;100140.88;1641101;87;21062;-63
2021/11/24 03:09:33;;;;;;;41.63;21.17;;;;;;;0.90;83.50;100144.70;1641250;86;21074;-62
2021/11/24 03:12:01;;;;;;;42.08;21.27;;;;;;;0.92;83.58;100139.84;1668764;86;21557;-62
2021/11/24 03:14:28;;;;;;;33.05;19.15;;;;;;;0.93;83.60;100146.94;1640151;87;21026;-64
2021/11/24 03:16:55;;;;;;;33.08;19.05;;;;;;;0.94;83.73;100140.43;1665052;86;21003;-63
2021/11/24 03:19:22;;;;;;;33.08;17.85;;;;;;;0.97;83.73;100151.35;1668654;86;21062;-63
2021/11/24 03:21:49;;;;;;;30.97;17.37;;;;;;;0.94;83.55;100145.86;1636752;86;21008;-64
2021/11/24 03:24:15;;;;;;;28.42;15.03;;;;;;;0.90;83.50;100150.13;1669000;86;21156;-64
2021/11/24 03:26:42;;;;;;;28.73;16.70;;;;;;;0.88;83.61;100156.84;1636050;86;21047;-63
2021/11/24 03:29:08;;;;;;;25.17;15.25;;;;;;;0.88;83.68;100157.68;1643091;86;21076;-62
2021/11/24 03:31:34;;;;;;;23.15;13.53;;;;;;;0.88;83.72;100156.33;1643605;86;20992;-62
2021/11/24 03:34:01;;;;;;;22.52;13.60;;;;;;;0.89;83.70;100159.88;1643615;86;21107;-64
2021/11/24 03:36:27;;;;;;;24.02;13.43;;;;;;;0.90;83.75;100158.80;1643563;86;21940;-64
2021/11/24 03:38:55;;;;;;;21.35;13.83;;;;;;;0.92;83.83;100161.55;1641977;87;21059;-62
2021/11/24 03:41:22;;;;;;;25.05;14.70;;;;;;;0.92;83.84;100171.05;1642574;87;21011;-63
2021/11/24 03:43:48;;;;;;;24.07;15.38;;;;;;;0.92;83.83;100175.12;1641960;87;21064;-63
2021/11/24 03:46:15;;;;;;;24.45;14.33;;;;;;;0.93;83.91;100164.58;1643692;86;20996;-64
2021/11/24 03:48:41;;;;;;;22.25;14.30;;;;;;;0.94;83.85;100168.92;1642266;87;21587;-63
2021/11/24 03:51:08;;;;;;;23.30;15.43;;;;;;;0.94;83.79;100170.81;1641787;87;21016;-64
2021/11/24 03:53:39;;;;;;;23.85;13.68;;;;;;;0.95;83.84;100174.67;1642374;87;21499;-65
2021/11/24 03:56:04;;;;;;;24.43;14.03;;;;;;;0.96;83.76;100176.30;1621631;87;21588;-64
2021/11/24 03:58:30;;;;;;;21.87;13.38;;;;;;;0.96;83.59;100170.05;1621351;87;21548;-65
2021/11/24 04:00:57;;;;;;;23.15;13.13;;;;;;;0.94;83.59;100171.64;1642329;87;21161;-63
2021/11/24 04:03:23;;;;;;;22.35;14.65;;;;;;;0.93;83.59;100173.23;1641955;87;21488;-64
2021/11/24 04:05:54;;;;;;;21.73;14.18;;;;;;;0.92;83.67;100168.89;1642233;87;21051;-64
2021/11/24 04:08:19;;;;;;;22.37;13.53;;;;;;;0.91;83.65;100169.94;1642305;86;21109;-63
2021/11/24 04:10:45;;;;;;;17.90;12.63;;;;;;;0.89;83.57;100172.89;1643622;86;21075;-62
2021/11/24 04:13:12;;;;;;;21.57;13.43;;;;;;;0.88;83.57;100179.39;1642121;87;21496;-64
2021/11/24 04:15:40;;;;;;;22.85;13.25;;;;;;;0.85;83.51;100179.87;1638433;87;21031;-64
2021/11/24 04:18:06;;;;;;;20.37;13.05;;;;;;;0.78;83.48;100180.53;1642340;86;21019;-65
2021/11/24 04:20:33;;;;;;;24.70;14.55;;;;;;;0.78;83.73;100187.31;1621770;87;21055;-63
2021/11/24 04:22:59;;;;;;;20.57;13.00;;;;;;;0.80;83.87;100193.33;1638586;87;21054;-63
2021/11/24 04:25:26;;;;;;;27.35;16.23;;;;;;;0.83;83.98;100190.14;1642141;87;21159;-62
2021/11/24 04:27:52;;;;;;;41.58;21.15;;;;;;;0.83;83.89;100194.20;1657804;84;21022;-65
2021/11/24 04:30:21;;;;;;;39.03;22.13;;;;;;;0.84;84.08;100193.13;1636695;87;21043;-65
2021/11/24 04:32:47;;;;;;;38.25;20.75;;;;;;;0.87;84.22;100197.27;1668874;86;21522;-64
2021/11/24 04:35:14;;;;;;;37.53;21.00;;;;;;;0.87;84.23;100195.36;1668796;86;21073;-63
2021/11/24 04:37:42;;;;;;;33.60;20.75;;;;;;;0.89;84.32;100191.89;1636611;87;22967;-64
2021/11/24 04:40:10;;;;;;;33.05;20.08;;;;;;;0.91;84.35;100195.20;1669049;86;21447;-65
2021/11/24 04:42:38;;;;;;;28.20;17.45;;;;;;;0.92;84.26;100189.24;1668747;86;21082;-63
2021/11/24 04:45:05;;;;;;;31.68;17.92;;;;;;;0.92;84.23;100188.69;1636478;86;21053;-63
2021/11/24 04:47:32;;;;;;;30.90;17.50;;;;;;;0.96;84.45;100183.09;1668843;86;21087;-64
2021/11/24 04:49:59;;;;;;;27.30;16.20;;;;;;;1.00;84.42;100181.25;1651418;86;21103;-66
2021/11/24 04:52:26;;;;;;;28.80;16.70;;;;;;;1.03;84.43;100187.03;1626954;86;20995;-65
2021/11/24 04:54:53;;;;;;;25.27;16.02;;;;;;;1.04;84.38;100182.43;1651750;86;21095;-63
2021/11/24 04:57:20;;;;;;;28.07;15.93;;;;;;;1.03;84.31;100185.67;1651344;86;21050;-64
2021/11/24 04:59:47;;;;;;;28.42;17.75;;;;;;;1.03;84.28;100189.73;1651699;86;21047;-64
2021/11/24 05:02:13;;;;;;;36.68;19.07;;;;;;;1.03;84.17;100191.62;1651591;86;21723;-63
2021/11/24 05:04:40;;;;;;;26.52;16.25;;;;;;;1.00;84.06;100193.46;1648907;86;21476;-65
2021/11/24 05:07:07;;;;;;;26.87;16.23;;;;;;;0.99;84.17;100195.34;1651654;86;21126;-65
2021/11/24 05:09:37;;;;;;;29.48;16.90;;;;;;;0.99;84.14;100195.34;1651417;86;21079;-62
2021/11/24 05:12:04;;;;;;;29.07;17.40;;;;;;;0.95;83.77;100206.41;1651293;86;21008;-64
2021/11/24 05:14:34;;;;;;;36.20;20.02;;;;;;;0.89;84.02;100211.44;1651467;86;21555;-63
2021/11/24 05:17:02;;;;;;;32.53;21.05;;;;;;;0.89;84.27;100216.86;1651607;86;21554;-64
2021/11/24 05:19:32;;;;;;;32.70;19.50;;;;;;;0.94;84.48;100216.42;1651659;86;21082;-61
2021/11/24 05:21:58;;;;;;;27.27;18.25;;;;;;;0.99;84.61;100214.90;1641757;86;21045;-64
2021/11/24 05:24:25;;;;;;;38.78;21.20;;;;;;;1.02;84.51;100219.84;1639825;87;21074;-65
2021/11/24 05:26:52;;;;;;;41.77;22.27;;;;;;;1.02;84.46;100222.56;1668735;86;21159;-64
2021/11/24 05:29:20;;;;;;;39.88;19.50;;;;;;;0.99;84.34;100215.70;1664155;86;21483;-64
2021/11/24 05:31:47;;;;;;;31.60;18.73;;;;;;;0.99;84.32;100214.90;1636800;87;21084;-63
2021/11/24 05:34:13;;;;;;;31.73;19.17;;;;;;;1.00;84.37;100224.67;1668763;85;21010;-64
2021/11/24 05:36:40;;;;;;;29.67;17.00;;;;;;;1.00;84.34;100226.03;1668506;86;21041;-65
2021/11/24 05:39:08;;;;;;;36.55;20.55;;;;;;;1.01;84.40;100225.80;1636642;87;21168;-62
2021/11/24 05:41:38;;;;;;;29.07;17.27;;;;;;;1.04;84.47;100232.66;1669041;86;21050;-62
2021/11/24 05:44:16;;;;;;;30.65;17.12;;;;;;;1.06;84.52;100224.55;1668825;85;21027;-63
2021/11/24 05:46:52;;;;;;;26.37;16.32;;;;;;;1.11;84.55;100235.23;1640652;86;21086;-64
2021/11/24 05:49:14;;;;;;;24.75;15.60;;;;;;;1.11;84.44;100237.39;1666764;85;21014;-63
2021/11/24 05:51:41;;;;;;;26.70;15.85;;;;;;;1.12;84.42;100239.59;1668780;86;21144;-63
2021/11/24 05:54:08;;;;;;;26.00;16.87;;;;;;;1.11;84.39;100246.89;1665044;86;21041;-64
2021/11/24 05:56:38;;;;;;;26.77;15.98;;;;;;;1.08;84.32;100247.37;1640812;87;21015;-64
2021/11/24 05:59:06;;;;;;;26.95;14.95;;;;;;;1.08;84.38;100239.23;1668601;86;21045;-63
2021/11/24 06:01:36;;;;;;;26.77;15.83;;;;;;;1.07;84.46;100240.31;1668689;85;21089;-63
2021/11/24 06:04:04;;;;;;;25.80;16.85;;;;;;;1.08;84.58;100235.16;1640129;87;21152;-63
2021/11/24 06:06:31;;;;;;;24.67;15.30;;;;;;;1.10;84.74;100239.83;1641584;86;21515;-63
2021/11/24 06:08:58;;;;;;;27.40;15.32;;;;;;;1.14;84.86;100236.94;1641545;86;21094;-64
2021/11/24 06:11:25;;;;;;;25.97;15.98;;;;;;;1.19;84.87;100244.36;1639874;87;21136;-64
2021/11/24 06:13:52;;;;;;;25.68;16.25;;;;;;;1.20;84.72;100242.77;1668747;86;21077;-63
2021/11/24 06:16:20;;;;;;;23.77;14.78;;;;;;;1.23;84.81;100248.23;1668888;86;21936;-65
2021/11/24 06:18:49;;;;;;;28.65;18.12;;;;;;;1.25;84.76;100247.47;1640809;87;21017;-66
2021/11/24 06:21:19;;;;;;;30.60;18.32;;;;;;;1.28;84.82;100242.91;1638966;86;21038;-64
2021/11/24 06:23:47;;;;;;;33.85;19.62;;;;;;;1.29;84.78;100245.94;1651496;86;21030;-63
2021/11/24 06:26:15;;;;;;;36.23;19.35;;;;;;;1.32;84.71;100251.41;1651370;86;21003;-64
2021/11/24 06:28:43;;;;;;;36.00;18.52;;;;;;;1.34;84.61;100252.00;1641966;86;21176;-62
2021/11/24 06:31:10;;;;;;;28.65;18.00;;;;;;;1.36;84.60;100256.66;1637051;87;21019;-63
2021/11/24 06:33:36;;;;;;;27.45;16.17;;;;;;;1.39;84.59;100258.06;1636922;87;21020;-63
2021/11/24 06:36:04;;;;;;;27.58;16.02;;;;;;;1.39;84.46;100257.53;1625700;86;21511;-63
2021/11/24 06:38:31;;;;;;;27.93;17.92;;;;;;;1.42;84.56;100259.77;1649877;86;21610;-62
2021/11/24 06:40:59;;;;;;;30.43;17.85;;;;;;;1.47;84.60;100259.59;1625526;86;21050;-63
2021/11/24 06:43:25;;;;;;;30.15;17.32;;;;;;;1.47;84.49;100260.39;1625383;86;21023;-62
2021/11/24 06:45:51;;;;;;;31.15;17.98;;;;;;;1.44;84.33;100257.64;1648186;86;21262;-63
2021/11/24 06:48:18;;;;;;;31.27;18.55;;;;;;;1.43;84.40;100264.12;1694788;84;21514;-63
2021/11/24 06:50:44;;;;;;;32.13;18.32;;;;;;;1.41;84.29;100260.84;1694858;84;21050;-66
2021/11/24 06:53:11;;;;;;;34.50;18.73;;;;;;;1.39;84.29;100267.56;1694816;84;21149;-63
2021/11/24 06:55:37;;;;;;;38.55;18.32;;;;;;;1.39;84.41;100260.77;1694827;84;21062;-62
2021/11/24 06:58:04;;;;;;;34.67;19.95;;;;;;;1.40;84.47;100265.16;1694793;84;21482;-65
2021/11/24 07:00:31;;;;;;;33.65;18.05;;;;;;;1.41;84.45;100270.34;1694796;84;21105;-65
2021/11/24 07:02:58;;;;;;;28.87;16.82;;;;;;;1.42;84.57;100261.13;1674812;84;21585;-63
2021/11/24 07:05:24;;;;;;;31.62;17.87;;;;;;;1.44;84.68;100267.14;1695022;84;21122;-63
2021/11/24 07:07:51;;;;;;;31.60;18.02;;;;;;;1.46;84.58;100272.34;1674756;84;21101;-64
2021/11/24 07:10:19;;;;;;;33.88;20.43;;;;;;;1.48;84.73;100275.64;1694826;84;21550;-64
2021/11/24 07:12:45;;;;;;;34.25;21.23;;;;;;;1.48;84.65;100278.36;1675168;84;21017;-65
2021/11/24 07:15:11;;;;;;;39.27;21.30;;;;;;;1.48;84.63;100286.51;1694826;84;21030;-62
2021/11/24 07:17:38;;;;;;;35.05;21.10;;;;;;;1.49;84.74;100277.80;1675268;84;21133;-64
2021/11/24 07:20:07;;;;;;;39.25;20.02;;;;;;;1.51;84.75;100275.68;1674621;84;21507;-65
2021/11/24 07:22:34;;;;;;;34.73;19.25;;;;;;;1.54;84.78;100279.27;1695201;84;21042;-64
2021/11/24 07:25:03;;;;;;;34.45;19.50;;;;;;;1.54;84.61;100277.91;1674826;84;21578;-65
2021/11/24 07:27:30;;;;;;;32.45;19.40;;;;;;;1.53;84.63;100274.91;1674852;82;21555;-62
2021/11/24 07:29:56;;;;;;;33.80;17.62;;;;;;;1.54;84.63;100277.91;1671523;84;21437;-64
2021/11/24 07:32:23;;;;;;;31.25;18.42;;;;;;;1.54;84.79;100283.34;1694723;84;21042;-64
2021/11/24 07:34:50;;;;;;;32.63;19.00;;;;;;;1.55;85.00;100281.74;1694670;84;21573;-63
2021/11/24 07:37:16;;;;;;;27.73;17.50;;;;;;;1.59;85.04;100286.17;1691073;84;21531;-64
2021/11/24 07:39:44;;;;;;;29.55;16.73;;;;;;;1.62;85.08;100291.11;1694779;84;21011;-63
2021/11/24 07:42:10;;;;;;;33.65;18.37;;;;;;;1.64;84.98;100294.42;1675272;84;21229;-63
2021/11/24 07:44:38;;;;;;;27.17;15.88;;;;;;;1.66;84.94;100297.73;1690992;84;21509;-61
2021/11/24 07:47:05;;;;;;;29.23;15.88;;;;;;;1.67;84.91;100290.41;1694606;84;20998;-63
2021/11/24 07:49:32;;;;;;;28.60;16.12;;;;;;;1.65;84.81;100291.18;1694780;84;21794;-64
2021/11/24 07:51:58;;;;;;;27.73;16.25;;;;;;;1.68;84.96;100288.81;1691311;84;21029;-63
2021/11/24 07:54:25;;;;;;;26.65;15.43;;;;;;;1.68;84.89;100290.69;1674808;84;21287;-64
2021/11/24 07:56:52;;;;;;;25.43;14.95;;;;;;;1.70;84.81;100289.92;1694580;84;21053;-65
2021/11/24 07:59:19;;;;;;;22.07;14.47;;;;;;;1.76;85.06;100293.55;1691142;84;21010;-63
2021/11/24 08:01:45;;;;;;;27.20;15.78;;;;;;;1.89;85.38;100294.64;1674795;84;21038;-63
2021/11/24 08:04:13;;;;;;;26.02;15.75;;;;;;;2.05;85.44;100293.02;1694760;84;21073;-63
2021/11/24 08:06:42;;;;;;;25.02;14.73;;;;;;;2.19;85.17;100290.00;1694529;84;21144;-64
2021/11/24 08:09:08;;;;;;;33.67;17.10;;;;;;;2.28;84.62;100287.70;1694959;84;21574;-64
2021/11/24 08:11:35;;;;;;;29.48;16.73;;;;;;;2.34;84.43;100290.79;1694788;84;21035;-64
2021/11/24 08:14:02;;;;;;;29.42;16.80;;;;;;;2.39;84.10;100289.52;1674988;84;21502;-63
2021/11/24 08:16:29;;;;;;;24.72;15.75;;;;;;;2.44;83.73;100298.30;1694991;84;21038;-63
2021/11/24 08:18:56;;;;;;;22.27;14.73;;;;;;;2.47;83.79;100304.63;1674638;84;21249;-66
2021/11/24 08:21:22;;;;;;;27.93;15.85;;;;;;;2.55;83.71;100306.10;1694717;84;21038;-64
2021/11/24 08:23:49;;;;;;;23.20;15.03;;;;;;;2.61;83.66;100303.74;1694744;84;21101;-65
2021/11/24 08:26:15;;;;;;;25.37;15.50;;;;;;;2.70;83.73;100300.08;1675121;84;21077;-63
2021/11/24 08:28:44;;;;;;;24.85;14.98;;;;;;;2.84;83.62;100303.30;1698808;84;21062;-63
2021/11/24 08:31:11;;;;;;;26.85;16.35;;;;;;;2.88;82.99;100302.27;1704602;84;21158;-65
2021/11/24 08:33:38;;;;;;;31.93;17.23;;;;;;;2.92;82.62;100300.67;1704717;84;21058;-64
2021/11/24 08:36:05;;;;;;;25.45;16.07;;;;;;;2.94;82.50;100300.42;1676749;84;21506;-64
2021/11/24 08:38:32;;;;;;;21.90;14.33;;;;;;;2.88;81.93;100290.02;1676661;84;21049;-64
2021/11/24 08:40:59;;;;;;;23.90;15.55;;;;;;;2.77;81.64;100287.13;1704883;84;21593;-65
2021/11/24 08:43:25;;;;;;;21.87;14.55;;;;;;;2.70;81.80;100279.67;1704613;84;21161;-64
2021/11/24 08:45:53;;;;;;;26.23;14.15;;;;;;;2.66;81.78;100279.33;1676623;84;21014;-63
2021/11/24 08:48:20;;;;;;;25.70;15.13;;;;;;;2.64;82.11;100276.06;1704640;84;21029;-64
2021/11/24 08:50:47;;;;;;;19.37;13.70;;;;;;;2.66;82.14;100275.25;1704916;84;21018;-64
2021/11/24 08:53:14;;;;;;;22.27;13.28;;;;;;;2.67;82.25;100282.36;1704743;84;20998;-62
2021/11/24 08:55:41;;;;;;;25.27;15.48;;;;;;;2.70;82.31;100277.47;1704754;84;21522;-64
2021/11/24 08:58:07;;;;;;;25.10;15.83;;;;;;;2.73;82.20;100271.55;1704853;84;21006;-65
2021/11/24 09:00:34;;;;;;;28.40;16.45;;;;;;;2.76;82.28;100274.58;1704729;84;20993;-63
2021/11/24 09:03:00;;;;;;;29.98;17.12;;;;;;;2.77;82.15;100270.80;1676822;84;21041;-63
2021/11/24 09:05:27;;;;;;;31.12;17.05;;;;;;;2.76;81.94;100271.05;1704927;84;21516;-64
2021/11/24 09:07:53;;;;;;;29.65;15.78;;;;;;;2.74;82.12;100276.75;1704564;84;21141;-64
2021/11/24 09:10:21;;;;;;;28.85;16.50;;;;;;;2.76;82.20;100281.38;1704992;84;21085;-64
2021/11/24 09:12:48;;;;;;;25.82;16.42;;;;;;;2.78;82.32;100277.08;1704985;84;20994;-62
2021/11/24 09:15:15;;;;;;;26.93;14.78;;;;;;;2.83;82.29;100281.77;1705026;84;20958;-64
2021/11/24 09:17:42;;;;;;;28.83;15.63;;;;;;;2.83;82.24;100281.23;1676522;84;21535;-65
2021/11/24 09:20:11;;;;;;;25.12;14.98;;;;;;;2.87;82.27;100285.09;1676711;84;21287;-64
2021/11/24 09:22:40;;;;;;;24.25;14.78;;;;;;;2.92;82.24;100289.25;1704840;84;21018;-65
2021/11/24 09:25:10;;;;;;;24.20;13.85;;;;;;;2.94;81.99;100290.36;1701422;84;21045;-65
2021/11/24 09:27:46;;;;;;;22.65;14.25;;;;;;;2.96;82.18;100288.75;1704813;84;21057;-65
2021/11/24 09:30:08;;;;;;;18.60;13.18;;;;;;;2.99;82.24;100285.52;1674834;84;21014;-65
2021/11/24 09:32:35;;;;;;;22.07;13.55;;;;;;;3.00;82.03;100283.91;1704710;84;21546;-63
2021/11/24 09:35:04;;;;;;;27.13;15.00;;;;;;;2.98;81.69;100290.16;1676952;84;21033;-63
2021/11/24 09:37:31;;;;;;;25.25;13.95;;;;;;;2.94;81.66;100289.00;1704654;84;21017;-64
2021/11/24 09:40:00;;;;;;;26.40;14.53;;;;;;;2.92;81.92;100286.53;1676650;84;20979;-64
2021/11/24 09:42:28;;;;;;;27.00;15.32;;;;;;;2.96;81.96;100288.75;1677176;84;21111;-65
2021/11/24 09:44:54;;;;;;;24.27;14.47;;;;;;;2.98;81.90;100287.97;1676658;84;21743;-66
2021/11/24 09:47:20;;;;;;;29.18;17.37;;;;;;;3.01;81.96;100288.30;1704748;84;21573;-63
2021/11/24 09:49:49;;;;;;;26.48;15.50;;;;;;;3.08;81.89;100288.64;1654277;84;21018;-65
2021/11/24 09:52:20;;;;;;;27.87;13.25;;;;;;;3.14;81.87;100288.47;1676397;84;21089;-64
2021/11/24 09:54:49;;;;;;;25.23;15.80;;;;;;;3.13;81.44;100291.45;1676900;84;21235;-65
2021/11/24 09:57:19;;;;;;;25.90;14.05;;;;;;;3.12;81.46;100287.89;1676811;84;21089;-63
2021/11/24 09:59:46;;;;;;;32.95;17.35;;;;;;;3.17;81.44;100289.88;1704221;84;21014;-65
2021/11/24 10:02:13;;;;;;;30.12;16.48;;;;;;;3.20;81.56;100286.64;1704484;84;21006;-65
2021/11/24 10:04:42;;;;;;;26.35;16.07;;;;;;;3.25;81.39;100291.33;1704448;84;21065;-64
2021/11/24 10:07:12;;;;;;;21.62;13.40;;;;;;;3.31;81.55;100288.15;1701044;84;21010;-64
2021/11/24 10:09:42;;;;;;;19.12;11.73;;;;;;;3.37;81.40;100283.88;1704599;84;21227;-64
2021/11/24 10:12:09;;;;;;;16.27;10.05;;;;;;;3.40;80.90;100281.17;1704536;84;20975;-65
2021/11/24 10:14:37;;;;;;;17.37;11.55;;;;;;;3.37;80.43;100282.52;1704305;84;21627;-64
2021/11/24 10:17:11;;;;;;;22.62;11.85;;;;;;;3.32;80.26;100280.25;1704953;84;21010;-64
2021/11/24 10:19:37;;;;;;;15.72;10.85;;;;;;;3.29;80.33;100275.58;1675662;84;21057;-64
2021/11/24 10:22:10;;;;;;;17.02;11.05;;;;;;;3.25;80.21;100271.73;1676805;84;21769;-63
2021/11/24 10:24:40;;;;;;;16.37;10.88;;;;;;;3.23;80.18;100279.33;1702291;84;21046;-64
2021/11/24 10:27:09;;;;;;;18.82;11.08;;;;;;;3.16;80.04;100275.95;1704716;84;21026;-65
2021/11/24 10:29:40;;;;;;;14.03;9.30;;;;;;;3.11;80.11;100278.61;1699546;82;21062;-65
2021/11/24 10:32:10;;;;;;;16.77;10.75;;;;;;;3.10;80.27;100278.33;1625086;86;21045;-64
2021/11/24 10:34:41;;;;;;;19.45;10.28;;;;;;;3.10;80.40;100275.08;1645694;86;21018;-65
2021/11/24 10:37:16;;;;;;;12.75;9.10;;;;;;;3.13;80.34;100273.22;1644196;87;21000;-64
2021/11/24 10:39:51;;;;;;;17.30;9.90;;;;;;;3.13;80.28;100278.66;1644378;87;21066;-64
2021/11/24 10:42:24;;;;;;;11.55;7.33;;;;;;;3.14;80.22;100274.85;1644847;87;21078;-63
2021/11/24 10:44:53;;;;;;;16.40;10.28;;;;;;;3.16;80.13;100276.79;1645673;86;21047;-65
2021/11/24 10:47:20;;;;;;;14.20;10.20;;;;;;;3.14;79.89;100271.29;1644600;87;21124;-64
2021/11/24 10:49:53;;;;;;;14.03;10.48;;;;;;;3.12;80.11;100276.99;1644018;87;20999;-64
2021/11/24 10:52:31;;;;;;;17.90;11.70;;;;;;;3.14;79.92;100274.85;1642105;87;21015;-63
2021/11/24 10:55:18;;;;;;;15.50;9.63;;;;;;;3.12;79.74;100272.11;1640300;87;21480;-65
2021/11/24 10:58:02;;;;;;;15.23;9.43;;;;;;;3.09;79.90;100267.16;1645716;86;21044;-62
2021/11/24 11:00:43;;;;;;;13.30;9.85;;;;;;;3.09;79.97;100272.05;1643771;87;21953;-63
2021/11/24 11:03:11;;;;;;;17.73;10.82;;;;;;;3.10;80.27;100262.83;1644255;87;21055;-64
2021/11/24 11:05:42;;;;;;;21.33;12.70;;;;;;;3.14;80.27;100268.04;1644679;87;21062;-62
2021/11/24 11:08:11;;;;;;;23.35;13.55;;;;;;;3.15;80.10;100264.26;1644360;87;21090;-64
2021/11/24 11:10:43;;;;;;;22.42;12.20;;;;;;;3.16;80.10;100264.53;1644606;87;21039;-65
2021/11/24 11:13:17;;;;;;;20.72;12.00;;;;;;;3.18;80.30;100254.75;1644324;87;21135;-64
2021/11/24 11:15:54;;;;;;;20.45;12.05;;;;;;;3.20;80.21;100262.66;1645284;86;21567;-64
2021/11/24 11:18:31;;;;;;;15.05;9.38;;;;;;;3.21;80.14;100260.24;1643056;87;21094;-63